<?xml version="1.0" encoding="UTF-8" standalone="no" ?>
<gpx xmlns="http://www.topografix.com/GPX/1/1" xmlns:xsi="http://www.w3.org/2001/XMLSchema-instance" xsi:schemaLocation="http://www.topografix.com/GPX/1/1 http://www.topografix.com/GPX/1/1/gpx.xsd" version="1.1" creator="VisuGPX - https://www.visugpx.com">
  <metadata>
    <name>ROP_LacanauDeMios_24km</name>
  </metadata>
  <trk>
    <name><![CDATA[ROP_LacanauDeMios_24km]]></name>
    <extensions>
      <line xmlns="http://www.topografix.com/GPX/gpx_style/0/2">
        <color>0000FF</color>
        <width>4</width>
      </line>
    </extensions>
    <trkseg>
      <trkpt lat="44.65122" lon="-0.8955">
        <ele>30.3</ele>
        <time>2021-06-01T22:00:00.000Z</time>
      </trkpt>
      <trkpt lat="44.65229" lon="-0.89523">
        <ele>30.6</ele>
        <time>2021-06-01T22:00:31.311Z</time>
      </trkpt>
      <trkpt lat="44.65287" lon="-0.89375">
        <ele>28.1</ele>
        <time>2021-06-01T22:00:50.428Z</time>
      </trkpt>
      <trkpt lat="44.65331" lon="-0.89307">
        <ele>28.3</ele>
        <time>2021-06-01T22:01:09.315Z</time>
      </trkpt>
      <trkpt lat="44.65349" lon="-0.89309">
        <ele>28.9</ele>
        <time>2021-06-01T22:01:16.602Z</time>
      </trkpt>
      <trkpt lat="44.65324" lon="-0.89369">
        <ele>27.4</ele>
        <time>2021-06-01T22:01:23.685Z</time>
      </trkpt>
      <trkpt lat="44.65302" lon="-0.89417">
        <ele>27.1</ele>
        <time>2021-06-01T22:01:31.338Z</time>
      </trkpt>
      <trkpt lat="44.65281" lon="-0.89487">
        <ele>28.7</ele>
        <time>2021-06-01T22:01:52.156Z</time>
      </trkpt>
      <trkpt lat="44.65298" lon="-0.89554">
        <ele>29.3</ele>
        <time>2021-06-01T22:02:08.093Z</time>
      </trkpt>
      <trkpt lat="44.65348" lon="-0.8953">
        <ele>28.3</ele>
        <time>2021-06-01T22:02:16.683Z</time>
      </trkpt>
      <trkpt lat="44.65385" lon="-0.89495">
        <ele>30.1</ele>
        <time>2021-06-01T22:02:36.547Z</time>
      </trkpt>
      <trkpt lat="44.65456" lon="-0.89426">
        <ele>33.8</ele>
        <time>2021-06-01T22:03:16.444Z</time>
      </trkpt>
      <trkpt lat="44.65455" lon="-0.89426">
        <ele>33.7</ele>
        <time>2021-06-01T22:03:16.558Z</time>
      </trkpt>
      <trkpt lat="44.65453" lon="-0.89326">
        <ele>34.9</ele>
        <time>2021-06-01T22:03:40.186Z</time>
      </trkpt>
      <trkpt lat="44.65489" lon="-0.89193">
        <ele>35</ele>
        <time>2021-06-01T22:04:08.864Z</time>
      </trkpt>
      <trkpt lat="44.6554" lon="-0.891">
        <ele>33.3</ele>
        <time>2021-06-01T22:04:22.218Z</time>
      </trkpt>
      <trkpt lat="44.6554" lon="-0.89039">
        <ele>33.5</ele>
        <time>2021-06-01T22:04:34.937Z</time>
      </trkpt>
      <trkpt lat="44.65605" lon="-0.88925">
        <ele>33.6</ele>
        <time>2021-06-01T22:05:04.374Z</time>
      </trkpt>
      <trkpt lat="44.65701" lon="-0.88867">
        <ele>34.3</ele>
        <time>2021-06-01T22:05:35.626Z</time>
      </trkpt>
      <trkpt lat="44.65775" lon="-0.88749">
        <ele>32.6</ele>
        <time>2021-06-01T22:05:54.662Z</time>
      </trkpt>
      <trkpt lat="44.66176" lon="-0.88621">
        <ele>35.5</ele>
        <time>2021-06-01T22:07:58.077Z</time>
      </trkpt>
      <trkpt lat="44.66391" lon="-0.8879">
        <ele>38</ele>
        <time>2021-06-01T22:09:14.317Z</time>
      </trkpt>
      <trkpt lat="44.66692" lon="-0.88661">
        <ele>39.5</ele>
        <time>2021-06-01T22:10:46.692Z</time>
      </trkpt>
      <trkpt lat="44.66663" lon="-0.8856">
        <ele>38.7</ele>
        <time>2021-06-01T22:11:00.718Z</time>
      </trkpt>
      <trkpt lat="44.66907" lon="-0.88407">
        <ele>43.3</ele>
        <time>2021-06-01T22:12:29.766Z</time>
      </trkpt>
      <trkpt lat="44.66972" lon="-0.88334">
        <ele>40</ele>
        <time>2021-06-01T22:12:40.617Z</time>
      </trkpt>
      <trkpt lat="44.67028" lon="-0.88184">
        <ele>39.1</ele>
        <time>2021-06-01T22:13:03.290Z</time>
      </trkpt>
      <trkpt lat="44.67056" lon="-0.88142">
        <ele>38.6</ele>
        <time>2021-06-01T22:13:10.522Z</time>
      </trkpt>
      <trkpt lat="44.67047" lon="-0.88067">
        <ele>38.2</ele>
        <time>2021-06-01T22:13:20.712Z</time>
      </trkpt>
      <trkpt lat="44.67085" lon="-0.87882">
        <ele>39.8</ele>
        <time>2021-06-01T22:14:03.765Z</time>
      </trkpt>
      <trkpt lat="44.67086" lon="-0.87806">
        <ele>41.9</ele>
        <time>2021-06-01T22:14:27.324Z</time>
      </trkpt>
      <trkpt lat="44.67125" lon="-0.87735">
        <ele>43.1</ele>
        <time>2021-06-01T22:14:48.963Z</time>
      </trkpt>
      <trkpt lat="44.67214" lon="-0.87708">
        <ele>42</ele>
        <time>2021-06-01T22:15:05.076Z</time>
      </trkpt>
      <trkpt lat="44.67311" lon="-0.87686">
        <ele>42.7</ele>
        <time>2021-06-01T22:15:34.585Z</time>
      </trkpt>
      <trkpt lat="44.67392" lon="-0.87622">
        <ele>43.3</ele>
        <time>2021-06-01T22:16:02.309Z</time>
      </trkpt>
      <trkpt lat="44.6744" lon="-0.87589">
        <ele>42.8</ele>
        <time>2021-06-01T22:16:12.109Z</time>
      </trkpt>
      <trkpt lat="44.6748" lon="-0.87595">
        <ele>42.4</ele>
        <time>2021-06-01T22:16:19.430Z</time>
      </trkpt>
      <trkpt lat="44.67474" lon="-0.87631">
        <ele>42.9</ele>
        <time>2021-06-01T22:16:28.369Z</time>
      </trkpt>
      <trkpt lat="44.67523" lon="-0.876">
        <ele>42.2</ele>
        <time>2021-06-01T22:16:37.762Z</time>
      </trkpt>
      <trkpt lat="44.67554" lon="-0.87538">
        <ele>43.1</ele>
        <time>2021-06-01T22:16:55.625Z</time>
      </trkpt>
      <trkpt lat="44.67552" lon="-0.87499">
        <ele>44</ele>
        <time>2021-06-01T22:17:06.721Z</time>
      </trkpt>
      <trkpt lat="44.67565" lon="-0.87497">
        <ele>44</ele>
        <time>2021-06-01T22:17:10.392Z</time>
      </trkpt>
      <trkpt lat="44.67555" lon="-0.87479">
        <ele>44.3</ele>
        <time>2021-06-01T22:17:15.881Z</time>
      </trkpt>
      <trkpt lat="44.67598" lon="-0.87428">
        <ele>43.9</ele>
        <time>2021-06-01T22:17:30.121Z</time>
      </trkpt>
      <trkpt lat="44.67638" lon="-0.87354">
        <ele>43.9</ele>
        <time>2021-06-01T22:17:48.678Z</time>
      </trkpt>
      <trkpt lat="44.67663" lon="-0.87266">
        <ele>45.4</ele>
        <time>2021-06-01T22:18:12.441Z</time>
      </trkpt>
      <trkpt lat="44.67886" lon="-0.87189">
        <ele>48.5</ele>
        <time>2021-06-01T22:19:26.002Z</time>
      </trkpt>
      <trkpt lat="44.67924" lon="-0.87072">
        <ele>51.8</ele>
        <time>2021-06-01T22:20:04.354Z</time>
      </trkpt>
      <trkpt lat="44.67955" lon="-0.87043">
        <ele>51.1</ele>
        <time>2021-06-01T22:20:10.416Z</time>
      </trkpt>
      <trkpt lat="44.67998" lon="-0.86898">
        <ele>47</ele>
        <time>2021-06-01T22:20:25.411Z</time>
      </trkpt>
      <trkpt lat="44.68152" lon="-0.86723">
        <ele>51.3</ele>
        <time>2021-06-01T22:21:34.798Z</time>
      </trkpt>
      <trkpt lat="44.68271" lon="-0.86705">
        <ele>48.9</ele>
        <time>2021-06-01T22:21:54.000Z</time>
      </trkpt>
      <trkpt lat="44.68303" lon="-0.86603">
        <ele>48.5</ele>
        <time>2021-06-01T22:22:14.657Z</time>
      </trkpt>
      <trkpt lat="44.68255" lon="-0.86488">
        <ele>52.1</ele>
        <time>2021-06-01T22:22:55.469Z</time>
      </trkpt>
      <trkpt lat="44.68014" lon="-0.86545">
        <ele>50.7</ele>
        <time>2021-06-01T22:23:58.541Z</time>
      </trkpt>
      <trkpt lat="44.67988" lon="-0.86554">
        <ele>50.8</ele>
        <time>2021-06-01T22:24:06.325Z</time>
      </trkpt>
      <trkpt lat="44.67851" lon="-0.86789">
        <ele>46.5</ele>
        <time>2021-06-01T22:24:41.053Z</time>
      </trkpt>
      <trkpt lat="44.67677" lon="-0.86993">
        <ele>49.2</ele>
        <time>2021-06-01T22:25:52.444Z</time>
      </trkpt>
      <trkpt lat="44.67635" lon="-0.87072">
        <ele>46.7</ele>
        <time>2021-06-01T22:26:01.959Z</time>
      </trkpt>
      <trkpt lat="44.67592" lon="-0.87291">
        <ele>45.8</ele>
        <time>2021-06-01T22:26:43.747Z</time>
      </trkpt>
      <trkpt lat="44.67561" lon="-0.87267">
        <ele>45.9</ele>
        <time>2021-06-01T22:26:53.946Z</time>
      </trkpt>
      <trkpt lat="44.67467" lon="-0.87375">
        <ele>46.1</ele>
        <time>2021-06-01T22:27:28.546Z</time>
      </trkpt>
      <trkpt lat="44.67436" lon="-0.87278">
        <ele>43.7</ele>
        <time>2021-06-01T22:27:39.217Z</time>
      </trkpt>
      <trkpt lat="44.67511" lon="-0.87114">
        <ele>43.7</ele>
        <time>2021-06-01T22:28:18.143Z</time>
      </trkpt>
      <trkpt lat="44.67584" lon="-0.87039">
        <ele>45.1</ele>
        <time>2021-06-01T22:28:47.719Z</time>
      </trkpt>
      <trkpt lat="44.67704" lon="-0.86717">
        <ele>49</ele>
        <time>2021-06-01T22:30:11.931Z</time>
      </trkpt>
      <trkpt lat="44.67852" lon="-0.86568">
        <ele>50.3</ele>
        <time>2021-06-01T22:31:06.607Z</time>
      </trkpt>
      <trkpt lat="44.67855" lon="-0.86442">
        <ele>51</ele>
        <time>2021-06-01T22:31:33.712Z</time>
      </trkpt>
      <trkpt lat="44.67923" lon="-0.8634">
        <ele>53.1</ele>
        <time>2021-06-01T22:32:08.319Z</time>
      </trkpt>
      <trkpt lat="44.67966" lon="-0.86159">
        <ele>52.9</ele>
        <time>2021-06-01T22:32:45.573Z</time>
      </trkpt>
      <trkpt lat="44.6794" lon="-0.86132">
        <ele>54.9</ele>
        <time>2021-06-01T22:33:02.778Z</time>
      </trkpt>
      <trkpt lat="44.67987" lon="-0.86006">
        <ele>54.2</ele>
        <time>2021-06-01T22:33:28.458Z</time>
      </trkpt>
      <trkpt lat="44.68141" lon="-0.85788">
        <ele>53.5</ele>
        <time>2021-06-01T22:34:26.931Z</time>
      </trkpt>
      <trkpt lat="44.68199" lon="-0.85717">
        <ele>52.3</ele>
        <time>2021-06-01T22:34:39.945Z</time>
      </trkpt>
      <trkpt lat="44.68225" lon="-0.85634">
        <ele>52.3</ele>
        <time>2021-06-01T22:34:58.049Z</time>
      </trkpt>
      <trkpt lat="44.68394" lon="-0.85441">
        <ele>57.1</ele>
        <time>2021-06-01T22:36:14.633Z</time>
      </trkpt>
      <trkpt lat="44.68391" lon="-0.85317">
        <ele>55.1</ele>
        <time>2021-06-01T22:36:28.363Z</time>
      </trkpt>
      <trkpt lat="44.68416" lon="-0.85187">
        <ele>56</ele>
        <time>2021-06-01T22:36:57.777Z</time>
      </trkpt>
      <trkpt lat="44.683" lon="-0.8513">
        <ele>54.8</ele>
        <time>2021-06-01T22:37:20.193Z</time>
      </trkpt>
      <trkpt lat="44.68228" lon="-0.85356">
        <ele>51.4</ele>
        <time>2021-06-01T22:37:48.690Z</time>
      </trkpt>
      <trkpt lat="44.68153" lon="-0.85361">
        <ele>52.2</ele>
        <time>2021-06-01T22:38:12.049Z</time>
      </trkpt>
      <trkpt lat="44.68141" lon="-0.85441">
        <ele>52.8</ele>
        <time>2021-06-01T22:38:30.073Z</time>
      </trkpt>
      <trkpt lat="44.67973" lon="-0.85524">
        <ele>55.6</ele>
        <time>2021-06-01T22:39:28.475Z</time>
      </trkpt>
      <trkpt lat="44.67959" lon="-0.85639">
        <ele>53</ele>
        <time>2021-06-01T22:39:40.230Z</time>
      </trkpt>
      <trkpt lat="44.67885" lon="-0.8589">
        <ele>55.2</ele>
        <time>2021-06-01T22:40:40.787Z</time>
      </trkpt>
      <trkpt lat="44.67854" lon="-0.86075">
        <ele>53.3</ele>
        <time>2021-06-01T22:41:04.108Z</time>
      </trkpt>
      <trkpt lat="44.67822" lon="-0.8605">
        <ele>52</ele>
        <time>2021-06-01T22:41:09.079Z</time>
      </trkpt>
      <trkpt lat="44.67812" lon="-0.86112">
        <ele>51.7</ele>
        <time>2021-06-01T22:41:20.599Z</time>
      </trkpt>
      <trkpt lat="44.67702" lon="-0.86204">
        <ele>51.6</ele>
        <time>2021-06-01T22:41:56.104Z</time>
      </trkpt>
      <trkpt lat="44.67808" lon="-0.86488">
        <ele>50.7</ele>
        <time>2021-06-01T22:42:56.484Z</time>
      </trkpt>
      <trkpt lat="44.67802" lon="-0.86563">
        <ele>50.2</ele>
        <time>2021-06-01T22:43:06.333Z</time>
      </trkpt>
      <trkpt lat="44.67737" lon="-0.86639">
        <ele>49</ele>
        <time>2021-06-01T22:43:20.893Z</time>
      </trkpt>
      <trkpt lat="44.6764" lon="-0.86791">
        <ele>49.1</ele>
        <time>2021-06-01T22:44:01.924Z</time>
      </trkpt>
      <trkpt lat="44.6756" lon="-0.87015">
        <ele>46.1</ele>
        <time>2021-06-01T22:44:31.642Z</time>
      </trkpt>
      <trkpt lat="44.67478" lon="-0.87099">
        <ele>44.3</ele>
        <time>2021-06-01T22:44:48.371Z</time>
      </trkpt>
      <trkpt lat="44.67456" lon="-0.87066">
        <ele>45.7</ele>
        <time>2021-06-01T22:45:03.388Z</time>
      </trkpt>
      <trkpt lat="44.67478" lon="-0.87029">
        <ele>46.8</ele>
        <time>2021-06-01T22:45:17.022Z</time>
      </trkpt>
      <trkpt lat="44.67464" lon="-0.86954">
        <ele>48.9</ele>
        <time>2021-06-01T22:45:40.795Z</time>
      </trkpt>
      <trkpt lat="44.67439" lon="-0.86923">
        <ele>49.2</ele>
        <time>2021-06-01T22:45:50.994Z</time>
      </trkpt>
      <trkpt lat="44.67398" lon="-0.86974">
        <ele>48.8</ele>
        <time>2021-06-01T22:46:01.318Z</time>
      </trkpt>
      <trkpt lat="44.67369" lon="-0.86914">
        <ele>49</ele>
        <time>2021-06-01T22:46:16.334Z</time>
      </trkpt>
      <trkpt lat="44.67373" lon="-0.86778">
        <ele>49.8</ele>
        <time>2021-06-01T22:46:45.734Z</time>
      </trkpt>
      <trkpt lat="44.67358" lon="-0.86724">
        <ele>49.5</ele>
        <time>2021-06-01T22:46:53.513Z</time>
      </trkpt>
      <trkpt lat="44.67347" lon="-0.86735">
        <ele>49.2</ele>
        <time>2021-06-01T22:46:55.625Z</time>
      </trkpt>
      <trkpt lat="44.67356" lon="-0.8679">
        <ele>49.4</ele>
        <time>2021-06-01T22:47:07.431Z</time>
      </trkpt>
      <trkpt lat="44.67333" lon="-0.86936">
        <ele>49.5</ele>
        <time>2021-06-01T22:47:37.545Z</time>
      </trkpt>
      <trkpt lat="44.6736" lon="-0.87015">
        <ele>49.8</ele>
        <time>2021-06-01T22:47:55.850Z</time>
      </trkpt>
      <trkpt lat="44.67396" lon="-0.87028">
        <ele>48.2</ele>
        <time>2021-06-01T22:48:00.547Z</time>
      </trkpt>
      <trkpt lat="44.67417" lon="-0.87031">
        <ele>47.3</ele>
        <time>2021-06-01T22:48:03.225Z</time>
      </trkpt>
      <trkpt lat="44.6745" lon="-0.87116">
        <ele>44.8</ele>
        <time>2021-06-01T22:48:12.506Z</time>
      </trkpt>
      <trkpt lat="44.67413" lon="-0.87234">
        <ele>43.6</ele>
        <time>2021-06-01T22:48:28.526Z</time>
      </trkpt>
      <trkpt lat="44.67412" lon="-0.87358">
        <ele>43.7</ele>
        <time>2021-06-01T22:48:53.543Z</time>
      </trkpt>
      <trkpt lat="44.67464" lon="-0.87499">
        <ele>44.5</ele>
        <time>2021-06-01T22:49:27.453Z</time>
      </trkpt>
      <trkpt lat="44.67342" lon="-0.87604">
        <ele>43</ele>
        <time>2021-06-01T22:49:53.298Z</time>
      </trkpt>
      <trkpt lat="44.67321" lon="-0.87581">
        <ele>43.2</ele>
        <time>2021-06-01T22:50:01.323Z</time>
      </trkpt>
      <trkpt lat="44.67155" lon="-0.87669">
        <ele>42.4</ele>
        <time>2021-06-01T22:50:47.909Z</time>
      </trkpt>
      <trkpt lat="44.67064" lon="-0.87741">
        <ele>45</ele>
        <time>2021-06-01T22:51:25.884Z</time>
      </trkpt>
      <trkpt lat="44.6704" lon="-0.87828">
        <ele>45.2</ele>
        <time>2021-06-01T22:51:45.044Z</time>
      </trkpt>
      <trkpt lat="44.67057" lon="-0.8788">
        <ele>42.4</ele>
        <time>2021-06-01T22:51:49.653Z</time>
      </trkpt>
      <trkpt lat="44.67038" lon="-0.88009">
        <ele>40</ele>
        <time>2021-06-01T22:52:03.763Z</time>
      </trkpt>
      <trkpt lat="44.6698" lon="-0.88048">
        <ele>42.3</ele>
        <time>2021-06-01T22:52:30.609Z</time>
      </trkpt>
      <trkpt lat="44.66976" lon="-0.88181">
        <ele>40.7</ele>
        <time>2021-06-01T22:52:46.380Z</time>
      </trkpt>
      <trkpt lat="44.66933" lon="-0.88343">
        <ele>41.6</ele>
        <time>2021-06-01T22:53:23.384Z</time>
      </trkpt>
      <trkpt lat="44.66704" lon="-0.885">
        <ele>41.4</ele>
        <time>2021-06-01T22:54:34.059Z</time>
      </trkpt>
      <trkpt lat="44.66669" lon="-0.88493">
        <ele>41.1</ele>
        <time>2021-06-01T22:54:40.620Z</time>
      </trkpt>
      <trkpt lat="44.66604" lon="-0.88579">
        <ele>36.5</ele>
        <time>2021-06-01T22:54:51.079Z</time>
      </trkpt>
      <trkpt lat="44.664" lon="-0.88677">
        <ele>35.1</ele>
        <time>2021-06-01T22:55:46.123Z</time>
      </trkpt>
      <trkpt lat="44.66267" lon="-0.88463">
        <ele>38.7</ele>
        <time>2021-06-01T22:56:53.931Z</time>
      </trkpt>
      <trkpt lat="44.66129" lon="-0.88452">
        <ele>37.4</ele>
        <time>2021-06-01T22:57:19.268Z</time>
      </trkpt>
      <trkpt lat="44.66124" lon="-0.88426">
        <ele>38.2</ele>
        <time>2021-06-01T22:57:27.978Z</time>
      </trkpt>
      <trkpt lat="44.66088" lon="-0.88402">
        <ele>39.8</ele>
        <time>2021-06-01T22:57:45.672Z</time>
      </trkpt>
      <trkpt lat="44.6599" lon="-0.88425">
        <ele>40.1</ele>
        <time>2021-06-01T22:58:14.359Z</time>
      </trkpt>
      <trkpt lat="44.65966" lon="-0.88544">
        <ele>37.9</ele>
        <time>2021-06-01T22:58:27.699Z</time>
      </trkpt>
      <trkpt lat="44.65707" lon="-0.88621">
        <ele>36.3</ele>
        <time>2021-06-01T22:59:35.720Z</time>
      </trkpt>
      <trkpt lat="44.65682" lon="-0.88565">
        <ele>37.7</ele>
        <time>2021-06-01T22:59:53.873Z</time>
      </trkpt>
      <trkpt lat="44.6567" lon="-0.88581">
        <ele>37.9</ele>
        <time>2021-06-01T22:59:59.095Z</time>
      </trkpt>
      <trkpt lat="44.65673" lon="-0.88667">
        <ele>37.7</ele>
        <time>2021-06-01T23:00:15.470Z</time>
      </trkpt>
      <trkpt lat="44.65523" lon="-0.8885">
        <ele>40.2</ele>
        <time>2021-06-01T23:01:18.494Z</time>
      </trkpt>
      <trkpt lat="44.65473" lon="-0.88966">
        <ele>37.5</ele>
        <time>2021-06-01T23:01:32.657Z</time>
      </trkpt>
      <trkpt lat="44.65445" lon="-0.89078">
        <ele>36.4</ele>
        <time>2021-06-01T23:01:47.421Z</time>
      </trkpt>
      <trkpt lat="44.65355" lon="-0.89184">
        <ele>33.7</ele>
        <time>2021-06-01T23:02:05.629Z</time>
      </trkpt>
      <trkpt lat="44.65315" lon="-0.89254">
        <ele>29</ele>
        <time>2021-06-01T23:02:12.863Z</time>
      </trkpt>
      <trkpt lat="44.65262" lon="-0.89195">
        <ele>31.3</ele>
        <time>2021-06-01T23:02:40.435Z</time>
      </trkpt>
      <trkpt lat="44.65228" lon="-0.89223">
        <ele>30.4</ele>
        <time>2021-06-01T23:02:46.557Z</time>
      </trkpt>
      <trkpt lat="44.65218" lon="-0.89322">
        <ele>29.8</ele>
        <time>2021-06-01T23:02:59.767Z</time>
      </trkpt>
      <trkpt lat="44.65241" lon="-0.89401">
        <ele>29.2</ele>
        <time>2021-06-01T23:03:10.828Z</time>
      </trkpt>
      <trkpt lat="44.65214" lon="-0.89458">
        <ele>30.4</ele>
        <time>2021-06-01T23:03:28.489Z</time>
      </trkpt>
      <trkpt lat="44.65178" lon="-0.89375">
        <ele>30.7</ele>
        <time>2021-06-01T23:03:48.707Z</time>
      </trkpt>
      <trkpt lat="44.65202" lon="-0.89101">
        <ele>35.8</ele>
        <time>2021-06-01T23:05:01.051Z</time>
      </trkpt>
      <trkpt lat="44.6558" lon="-0.88501">
        <ele>38.2</ele>
        <time>2021-06-01T23:07:47.531Z</time>
      </trkpt>
      <trkpt lat="44.65502" lon="-0.88079">
        <ele>38.9</ele>
        <time>2021-06-01T23:09:16.443Z</time>
      </trkpt>
      <trkpt lat="44.65698" lon="-0.87959">
        <ele>39</ele>
        <time>2021-06-01T23:10:16.718Z</time>
      </trkpt>
      <trkpt lat="44.65671" lon="-0.87414">
        <ele>42</ele>
        <time>2021-06-01T23:12:14.120Z</time>
      </trkpt>
      <trkpt lat="44.65791" lon="-0.86375">
        <ele>42</ele>
        <time>2021-06-01T23:15:44.323Z</time>
      </trkpt>
      <trkpt lat="44.65631" lon="-0.86721">
        <ele>40</ele>
        <time>2021-06-01T23:16:58.946Z</time>
      </trkpt>
      <trkpt lat="44.6553" lon="-0.86791">
        <ele>38.9</ele>
        <time>2021-06-01T23:17:19.488Z</time>
      </trkpt>
      <trkpt lat="44.65483" lon="-0.86756">
        <ele>36.3</ele>
        <time>2021-06-01T23:17:25.865Z</time>
      </trkpt>
      <trkpt lat="44.65444" lon="-0.86764">
        <ele>34.5</ele>
        <time>2021-06-01T23:17:30.728Z</time>
      </trkpt>
      <trkpt lat="44.65435" lon="-0.8682">
        <ele>34.9</ele>
        <time>2021-06-01T23:17:43.324Z</time>
      </trkpt>
      <trkpt lat="44.65398" lon="-0.86939">
        <ele>33.2</ele>
        <time>2021-06-01T23:17:58.438Z</time>
      </trkpt>
      <trkpt lat="44.65448" lon="-0.87035">
        <ele>34.4</ele>
        <time>2021-06-01T23:18:25.746Z</time>
      </trkpt>
      <trkpt lat="44.65447" lon="-0.86971">
        <ele>35.2</ele>
        <time>2021-06-01T23:18:40.982Z</time>
      </trkpt>
      <trkpt lat="44.65462" lon="-0.8697">
        <ele>35.9</ele>
        <time>2021-06-01T23:18:48.193Z</time>
      </trkpt>
      <trkpt lat="44.6557" lon="-0.87238">
        <ele>39.2</ele>
        <time>2021-06-01T23:19:59.550Z</time>
      </trkpt>
      <trkpt lat="44.65564" lon="-0.87276">
        <ele>39.5</ele>
        <time>2021-06-01T23:20:08.180Z</time>
      </trkpt>
      <trkpt lat="44.65533" lon="-0.87279">
        <ele>37.7</ele>
        <time>2021-06-01T23:20:11.632Z</time>
      </trkpt>
      <trkpt lat="44.6552" lon="-0.87472">
        <ele>42</ele>
        <time>2021-06-01T23:21:05.826Z</time>
      </trkpt>
      <trkpt lat="44.65465" lon="-0.87508">
        <ele>41.7</ele>
        <time>2021-06-01T23:21:21.659Z</time>
      </trkpt>
      <trkpt lat="44.65298" lon="-0.8794">
        <ele>44.4</ele>
        <time>2021-06-01T23:23:07.321Z</time>
      </trkpt>
      <trkpt lat="44.65259" lon="-0.88516">
        <ele>34.9</ele>
        <time>2021-06-01T23:24:11.092Z</time>
      </trkpt>
      <trkpt lat="44.64921" lon="-0.88992">
        <ele>34</ele>
        <time>2021-06-01T23:26:21.649Z</time>
      </trkpt>
      <trkpt lat="44.64884" lon="-0.89005">
        <ele>31.2</ele>
        <time>2021-06-01T23:26:25.968Z</time>
      </trkpt>
      <trkpt lat="44.64909" lon="-0.88892">
        <ele>32.6</ele>
        <time>2021-06-01T23:26:53.851Z</time>
      </trkpt>
      <trkpt lat="44.6492" lon="-0.88797">
        <ele>29.8</ele>
        <time>2021-06-01T23:27:02.680Z</time>
      </trkpt>
      <trkpt lat="44.65061" lon="-0.88577">
        <ele>31.9</ele>
        <time>2021-06-01T23:28:07.763Z</time>
      </trkpt>
      <trkpt lat="44.65078" lon="-0.88476">
        <ele>31.3</ele>
        <time>2021-06-01T23:28:21.533Z</time>
      </trkpt>
      <trkpt lat="44.65127" lon="-0.88397">
        <ele>32.3</ele>
        <time>2021-06-01T23:28:45.398Z</time>
      </trkpt>
      <trkpt lat="44.65204" lon="-0.88337">
        <ele>34.3</ele>
        <time>2021-06-01T23:29:16.608Z</time>
      </trkpt>
      <trkpt lat="44.65208" lon="-0.88236">
        <ele>35.3</ele>
        <time>2021-06-01T23:29:39.757Z</time>
      </trkpt>
      <trkpt lat="44.6515" lon="-0.88145">
        <ele>38</ele>
        <time>2021-06-01T23:30:13.863Z</time>
      </trkpt>
      <trkpt lat="44.65144" lon="-0.88033">
        <ele>38.4</ele>
        <time>2021-06-01T23:30:37.373Z</time>
      </trkpt>
      <trkpt lat="44.65202" lon="-0.87954">
        <ele>42.6</ele>
        <time>2021-06-01T23:31:17.546Z</time>
      </trkpt>
      <trkpt lat="44.65287" lon="-0.87928">
        <ele>44.6</ele>
        <time>2021-06-01T23:31:48.482Z</time>
      </trkpt>
      <trkpt lat="44.65291" lon="-0.88254">
        <ele>36</ele>
        <time>2021-06-01T23:32:19.503Z</time>
      </trkpt>
      <trkpt lat="44.65193" lon="-0.89099">
        <ele>36.2</ele>
        <time>2021-06-01T23:35:11.006Z</time>
      </trkpt>
      <trkpt lat="44.64951" lon="-0.8941">
        <ele>30.6</ele>
        <time>2021-06-01T23:36:05.510Z</time>
      </trkpt>
      <trkpt lat="44.64942" lon="-0.89508">
        <ele>28.9</ele>
        <time>2021-06-01T23:36:16.267Z</time>
      </trkpt>
      <trkpt lat="44.65011" lon="-0.8956">
        <ele>27.7</ele>
        <time>2021-06-01T23:36:29.564Z</time>
      </trkpt>
      <trkpt lat="44.65083" lon="-0.89524">
        <ele>31.3</ele>
        <time>2021-06-01T23:37:06.380Z</time>
      </trkpt>
      <trkpt lat="44.6512" lon="-0.89551">
        <ele>30.2</ele>
        <time>2021-06-01T23:37:12.606Z</time>
      </trkpt>
    </trkseg>
  </trk>
</gpx>